Lady Fell — TSNU — position and weather

sailwx.info

Track history (hours):
 
Tides and Currents Weather Stations Pressure Air Temp Water Temp Dewpoint Dewpoint Depression Visibility Wind Speed Wind Dir Waves Ship Positions

Lady Fell

Last reported at 2014-Aug-01 01:30 UTC. Time now 2014-Aug-01 03:54 UTC.
Position N 35°49' E 014°36'.

Length 166 m; draft 10.2 m.

Type: Tanker. MMSI: 672564000.

Date/timePositionNaut miles runAvg speedWind from/ knotsBaromVisibWave heightAir tempDewpointWater temp
2014-Aug-01 01:30N 35°49' E 014°36'  
2014-Jul-28 18:20N 32°52' E 027°33'1012.2
2014-Jul-28 17:33N 32°49' E 027°44'1212.1
2014-Jul-28 16:33N 32°45' E 027°58'1212.0
2014-Jul-28 15:33N 32°42' E 028°12'1211.8
2014-Jul-28 14:33N 32°39' E 028°25'9 9.5
2014-Jul-28 13:33N 32°36' E 028°36'8 8.0
2014-Jul-28 12:33N 32°34' E 028°45'8 7.8
2014-Jul-28 11:33N 32°32' E 028°54'8 7.9
2014-Jul-28 10:33N 32°29' E 029°03'89 9.6
2014-Jul-28 01:16N 32°05' E 030°45'3111.0
2014-Jul-27 22:28N 31°56' E 031°20'5410.6
2014-Jul-27 17:21N 31°31' E 032°16'10 9.2
2014-Jul-27 16:19N 31°25' E 032°24'  
Track history (hours):
 
Tides and Currents Weather Stations Pressure Air Temp Water Temp Dewpoint Dewpoint Depression Visibility Wind Speed Wind Dir Waves Ship Positions

Lady Fell

Last reported at 2014-Aug-01 01:30 UTC. Time now 2014-Aug-01 03:54 UTC.
Position N 35°49' E 014°36'.

Length 166 m; draft 10.2 m.

Type: Tanker. MMSI: 672564000.

Date/timePositionNaut miles runAvg speedWind from/ knotsBaromVisibWave heightAir tempDewpointWater temp
2014-Aug-01 01:30N 35°49' E 014°36'  
2014-Jul-28 18:20N 32°52' E 027°33'1012.2
2014-Jul-28 17:33N 32°49' E 027°44'1212.1
2014-Jul-28 16:33N 32°45' E 027°58'1212.0
2014-Jul-28 15:33N 32°42' E 028°12'1211.8
2014-Jul-28 14:33N 32°39' E 028°25'9 9.5
2014-Jul-28 13:33N 32°36' E 028°36'8 8.0
2014-Jul-28 12:33N 32°34' E 028°45'8 7.8
2014-Jul-28 11:33N 32°32' E 028°54'8 7.9
2014-Jul-28 10:33N 32°29' E 029°03'89 9.6
2014-Jul-28 01:16N 32°05' E 030°45'3111.0
2014-Jul-27 22:28N 31°56' E 031°20'5410.6
2014-Jul-27 17:21N 31°31' E 032°16'10 9.2
2014-Jul-27 16:19N 31°25' E 032°24'  

Dump ship's entire track history